createdAt,value
2019-05-06T00:01:39.253Z,101079.58
2019-05-06T00:03:45.604Z,101073.11
2019-05-06T00:05:54.142Z,101079.56
2019-05-06T00:07:59.979Z,101068.33
2019-05-06T00:10:07.698Z,101071.78
2019-05-06T00:12:14.556Z,101073.09
2019-05-06T00:14:23.427Z,101073.95
2019-05-06T00:16:30.129Z,101074.36
2019-05-06T00:18:36.498Z,101070.03
2019-05-06T00:20:43.859Z,101070.41
2019-05-06T00:22:51.577Z,101071.31
2019-05-06T00:25:11.347Z,101075.61
2019-05-06T00:27:36.449Z,101081.20
2019-05-06T00:29:46.806Z,101082.06
2019-05-06T00:31:53.613Z,101080.28
2019-05-06T00:33:59.947Z,101076.80
2019-05-06T00:36:06.633Z,101085.02
2019-05-06T00:38:13.876Z,101076.79
2019-05-06T00:40:21.791Z,101079.77
2019-05-06T00:42:34.385Z,101079.75
2019-05-06T00:44:40.354Z,101081.04
2019-05-06T00:46:46.977Z,101079.72
2019-05-06T00:48:54.297Z,101079.25
2019-05-06T00:51:01.007Z,101076.34
2019-05-06T00:53:08.976Z,101075.00
2019-05-06T00:55:15.236Z,101084.86
2019-05-06T00:57:24.986Z,101072.73
2019-05-06T00:59:31.372Z,101073.11
2019-05-06T01:01:37.926Z,101074.80
2019-05-06T01:03:45.828Z,101076.12
2019-05-06T01:05:54.207Z,101079.97
2019-05-06T01:08:00.702Z,101081.64
2019-05-06T01:10:08.435Z,101082.50
2019-05-06T01:12:14.739Z,101084.23
2019-05-06T01:14:28.370Z,101084.16
2019-05-06T01:16:35.249Z,101082.42
2019-05-06T01:18:43.491Z,101087.58
2019-05-06T01:20:54.169Z,101090.59
2019-05-06T01:23:00.588Z,101090.14
2019-05-06T01:25:09.519Z,101091.02
2019-05-06T01:27:15.759Z,101094.00
2019-05-06T01:29:23.985Z,101087.08
2019-05-06T01:31:42.139Z,101090.99
2019-05-06T01:33:38.258Z,101085.36
2019-05-06T01:35:44.595Z,101097.44
2019-05-06T01:37:54.492Z,101091.78
2019-05-06T01:40:03.926Z,101094.80
2019-05-06T01:42:13.750Z,101097.78
2019-05-06T01:44:19.561Z,101097.76
2019-05-06T01:46:26.460Z,101090.86
2019-05-06T01:48:47.978Z,101095.17
2019-05-06T01:50:54.341Z,101092.11
2019-05-06T01:53:01.104Z,101087.33
2019-05-06T01:55:10.611Z,101091.63
2019-05-06T01:57:16.913Z,101092.50
2019-05-06T01:59:24.632Z,101094.64
2019-05-06T02:01:31.462Z,101088.98
2019-05-06T02:03:37.727Z,101092.11
2019-05-06T02:05:44.568Z,101096.81
2019-05-06T02:07:50.852Z,101098.97
2019-05-06T02:09:57.326Z,101091.15
2019-05-06T02:12:04.696Z,101089.88
2019-05-06T02:14:11.057Z,101086.11
2019-05-06T02:16:17.758Z,101078.73
2019-05-06T02:18:24.390Z,101078.27
2019-05-06T02:20:30.669Z,101074.33
2019-05-06T02:22:47.478Z,101075.20
2019-05-06T02:24:58.138Z,101070.84
2019-05-06T02:27:06.267Z,101076.47
2019-05-06T02:29:16.814Z,101077.77
2019-05-06T02:31:46.091Z,101075.17
2019-05-06T02:34:05.129Z,101071.69
2019-05-06T02:36:15.057Z,101066.48
2019-05-06T02:38:35.585Z,101066.03
2019-05-06T02:40:35.634Z,101067.33
2019-05-06T02:42:43.145Z,101067.33
2019-05-06T02:44:50.625Z,101067.33
2019-05-06T02:46:58.619Z,101063.45
2019-05-06T02:49:09.036Z,101060.44
2019-05-06T02:51:17.287Z,101058.27
2019-05-06T02:53:26.700Z,101062.55
2019-05-06T02:55:36.073Z,101067.72
2019-05-06T02:57:43.679Z,101067.69
2019-05-06T02:59:49.740Z,101064.23
2019-05-06T03:01:56.036Z,101066.37
2019-05-06T03:04:04.444Z,101069.62
2019-05-06T03:06:13.039Z,101067.91
2019-05-06T03:08:18.324Z,101067.37
2019-05-06T03:10:24.982Z,101066.06
2019-05-06T03:12:33.538Z,101068.31
2019-05-06T03:14:39.442Z,101073.19
2019-05-06T03:16:45.683Z,101074.89
2019-05-06T03:18:53.177Z,101075.84
2019-05-06T03:21:03.875Z,101076.92
2019-05-06T03:23:14.229Z,101077.02
2019-05-06T03:25:23.957Z,101083.56
2019-05-06T03:27:32.667Z,101079.48
2019-05-06T03:29:37.518Z,101072.48
2019-05-06T03:31:46.216Z,101081.46
2019-05-06T03:34:13.290Z,101071.12
2019-05-06T03:36:13.608Z,101073.20
2019-05-06T03:38:07.866Z,101072.55
2019-05-06T03:40:14.524Z,101073.09
2019-05-06T03:42:23.159Z,101071.02
2019-05-06T03:44:32.895Z,101077.95
2019-05-06T03:46:55.271Z,101074.09
2019-05-06T03:49:06.000Z,101071.48
2019-05-06T03:51:13.530Z,101077.58
2019-05-06T03:53:23.260Z,101084.07
2019-05-06T03:55:33.958Z,101075.02
2019-05-06T03:57:42.638Z,101072.02
2019-05-06T03:59:52.785Z,101083.67
2019-05-06T04:01:59.105Z,101074.55
2019-05-06T04:04:05.897Z,101071.45
2019-05-06T04:06:14.088Z,101070.91
2019-05-06T04:08:24.136Z,101070.56
2019-05-06T04:10:33.840Z,101075.34
2019-05-06T04:12:39.520Z,101072.95
2019-05-06T04:14:47.673Z,101075.84
2019-05-06T04:16:55.652Z,101079.12
2019-05-06T04:19:12.826Z,101079.20
2019-05-06T04:21:18.509Z,101083.98
2019-05-06T04:23:33.165Z,101087.81
2019-05-06T04:25:46.985Z,101085.41
2019-05-06T04:27:55.207Z,101083.22
2019-05-06T04:30:04.527Z,101081.69
2019-05-06T04:32:13.902Z,101075.67
2019-05-06T04:34:43.060Z,101083.66
2019-05-06T04:36:48.506Z,101073.52
2019-05-06T04:38:54.895Z,101075.30
2019-05-06T04:41:02.943Z,101077.69
2019-05-06T04:43:13.059Z,101083.64
2019-05-06T04:45:18.458Z,101083.95
2019-05-06T04:47:24.843Z,101084.97
2019-05-06T04:49:33.067Z,101083.22
2019-05-06T04:51:39.080Z,101089.81
2019-05-06T04:53:47.824Z,101086.62
2019-05-06T04:55:55.514Z,101088.94
2019-05-06T04:58:08.929Z,101089.88
2019-05-06T05:00:17.804Z,101091.80
2019-05-06T05:02:27.233Z,101089.76
2019-05-06T05:04:36.875Z,101091.05
2019-05-06T05:06:47.148Z,101091.95
2019-05-06T05:08:54.754Z,101093.30
2019-05-06T05:11:07.828Z,101094.19
2019-05-06T05:13:33.194Z,101100.66
2019-05-06T05:15:39.454Z,101093.70
2019-05-06T05:17:47.354Z,101091.05
2019-05-06T05:19:54.239Z,101099.49
2019-05-06T05:22:07.245Z,101098.37
2019-05-06T05:24:14.237Z,101102.92
2019-05-06T05:26:22.530Z,101095.73
2019-05-06T05:28:29.494Z,101102.86
2019-05-06T05:30:36.725Z,101098.58
2019-05-06T05:32:43.061Z,101096.84
2019-05-06T05:34:52.228Z,101095.97
2019-05-06T05:36:58.441Z,101096.05
2019-05-06T05:39:06.573Z,101092.38
2019-05-06T05:41:13.921Z,101090.64
2019-05-06T05:43:42.268Z,101092.78
2019-05-06T05:45:52.405Z,101093.38
2019-05-06T05:48:02.744Z,101095.11
2019-05-06T05:50:13.172Z,101096.81
2019-05-06T05:52:22.160Z,101102.03
2019-05-06T05:54:27.874Z,101102.75
2019-05-06T05:56:34.338Z,101105.84
2019-05-06T05:58:42.418Z,101105.88
2019-05-06T06:00:48.586Z,101108.69
2019-05-06T06:02:56.359Z,101101.06
2019-05-06T06:05:04.538Z,101107.13
2019-05-06T06:07:13.014Z,101107.13
2019-05-06T06:09:22.264Z,101104.63
2019-05-06T06:11:32.698Z,101104.25
2019-05-06T06:13:38.620Z,101099.52
2019-05-06T06:16:02.940Z,101106.33
2019-05-06T06:18:26.493Z,101099.69
2019-05-06T06:20:47.386Z,101101.48
2019-05-06T06:22:57.337Z,101100.49
2019-05-06T06:25:05.750Z,101096.13
2019-05-06T06:27:13.428Z,101093.42
2019-05-06T06:29:19.803Z,101092.98
2019-05-06T06:31:34.040Z,101089.98
2019-05-06T06:33:42.835Z,101094.00
2019-05-06T06:35:51.516Z,101087.72
2019-05-06T06:37:59.268Z,101090.27
2019-05-06T06:40:09.542Z,101087.16
2019-05-06T06:42:16.115Z,101091.08
2019-05-06T06:44:27.060Z,101088.78
2019-05-06T06:46:34.753Z,101087.05
2019-05-06T06:48:43.042Z,101084.91
2019-05-06T06:50:52.249Z,101081.55
2019-05-06T06:52:59.054Z,101081.13
2019-05-06T06:55:08.109Z,101078.31
2019-05-06T06:57:24.878Z,101079.51
2019-05-06T06:59:42.563Z,101073.92
2019-05-06T07:01:53.912Z,101074.64
2019-05-06T07:04:10.242Z,101079.14
2019-05-06T07:06:14.921Z,101074.40
2019-05-06T07:08:34.122Z,101071.34
2019-05-06T07:10:44.563Z,101065.87
2019-05-06T07:12:53.209Z,101070.09
2019-05-06T07:15:02.322Z,101065.92
2019-05-06T07:17:09.070Z,101064.37
2019-05-06T07:19:17.164Z,101063.91
2019-05-06T07:21:33.632Z,101058.33
2019-05-06T07:23:38.934Z,101055.88
2019-05-06T07:25:45.254Z,101059.64
2019-05-06T07:27:52.927Z,101059.73
2019-05-06T07:29:59.536Z,101053.66
2019-05-06T07:32:06.097Z,101050.20
2019-05-06T07:34:14.513Z,101051.75
2019-05-06T07:36:22.758Z,101051.34
2019-05-06T07:38:28.770Z,101046.70
2019-05-06T07:40:35.530Z,101047.11
2019-05-06T07:42:43.347Z,101047.89
2019-05-06T07:44:52.738Z,101046.86
2019-05-06T07:46:59.966Z,101046.78
2019-05-06T07:49:06.320Z,101041.44
2019-05-06T07:51:12.575Z,101036.96
2019-05-06T07:53:22.002Z,101042.17
2019-05-06T07:55:28.262Z,101037.95
2019-05-06T07:57:34.735Z,101034.13
2019-05-06T07:59:42.874Z,101031.44
2019-05-06T08:01:49.199Z,101030.48
2019-05-06T08:03:55.682Z,101029.94
2019-05-06T08:06:04.277Z,101032.05
2019-05-06T08:08:12.972Z,101030.59
2019-05-06T08:10:21.917Z,101029.64
2019-05-06T08:12:27.461Z,101028.25
2019-05-06T08:14:38.241Z,101031.39
2019-05-06T08:17:02.360Z,101028.56
2019-05-06T08:19:08.778Z,101026.09
2019-05-06T08:21:22.895Z,101022.39
2019-05-06T08:23:32.529Z,101028.78
2019-05-06T08:25:42.529Z,101017.79
2019-05-06T08:27:49.617Z,101024.56
2019-05-06T08:29:56.258Z,101026.45
2019-05-06T08:32:03.033Z,101016.37
2019-05-06T08:34:09.387Z,101017.98
2019-05-06T08:36:33.467Z,101010.92
2019-05-06T08:38:59.386Z,101014.82
2019-05-06T08:41:07.397Z,101016.19
2019-05-06T08:43:13.660Z,101009.73
2019-05-06T08:45:21.955Z,101013.80
2019-05-06T08:47:28.342Z,101011.79
2019-05-06T08:49:36.432Z,101004.80
2019-05-06T08:51:47.435Z,101008.70
2019-05-06T08:54:07.890Z,101006.17
2019-05-06T08:56:16.544Z,101011.89
2019-05-06T08:58:25.746Z,101018.45
2019-05-06T09:00:33.045Z,101015.98
2019-05-06T09:02:39.487Z,101012.45
2019-05-06T09:04:45.863Z,101017.38
2019-05-06T09:06:53.715Z,101012.30
2019-05-06T09:09:02.202Z,101007.25
2019-05-06T09:11:09.676Z,101013.27
2019-05-06T09:13:16.019Z,101013.31
2019-05-06T09:15:22.480Z,101011.02
2019-05-06T09:17:28.926Z,101010.09
2019-05-06T09:19:35.297Z,101007.26
2019-05-06T09:21:46.046Z,101000.95
2019-05-06T09:23:53.157Z,100994.88
2019-05-06T09:26:02.508Z,100996.25
2019-05-06T09:28:09.457Z,100996.00
2019-05-06T09:30:19.296Z,100987.39
2019-05-06T09:32:28.850Z,100991.45
2019-05-06T09:34:45.550Z,100994.31
2019-05-06T09:37:09.426Z,100986.09
2019-05-06T09:39:16.009Z,100982.72
2019-05-06T09:41:23.111Z,100982.59
2019-05-06T09:43:29.738Z,100984.72
2019-05-06T09:45:36.736Z,100982.97
2019-05-06T09:47:48.410Z,100986.55
2019-05-06T09:49:54.755Z,100981.66
2019-05-06T09:52:02.497Z,100983.21
2019-05-06T09:54:12.756Z,100983.58
2019-05-06T09:56:22.895Z,100981.41
2019-05-06T09:58:28.381Z,100993.44
2019-05-06T10:00:37.412Z,100987.55
2019-05-06T10:02:43.789Z,100980.63
2019-05-06T10:04:52.060Z,100987.85
2019-05-06T10:07:00.100Z,100979.97
2019-05-06T10:09:15.793Z,100987.02
2019-05-06T10:11:22.253Z,100983.02
2019-05-06T10:13:28.201Z,100982.11
2019-05-06T10:15:35.073Z,100981.16
2019-05-06T10:17:42.861Z,100973.02
2019-05-06T10:19:49.533Z,100973.73
2019-05-06T10:21:55.901Z,100975.19
2019-05-06T10:24:03.499Z,100974.77
2019-05-06T10:26:09.868Z,100971.23
2019-05-06T10:28:28.714Z,100969.11
2019-05-06T10:30:35.180Z,100967.93
2019-05-06T10:32:43.204Z,100965.96
2019-05-06T10:34:52.429Z,100966.61
2019-05-06T10:37:33.553Z,100967.52
2019-05-06T10:39:43.527Z,100959.46
2019-05-06T10:41:56.159Z,100958.63
2019-05-06T10:44:24.418Z,100963.97
2019-05-06T10:46:30.993Z,100955.85
2019-05-06T10:48:38.889Z,100955.61
2019-05-06T10:50:46.986Z,100960.09
2019-05-06T10:53:03.800Z,100955.44
2019-05-06T10:55:12.309Z,100954.44
2019-05-06T10:57:22.052Z,100949.84
2019-05-06T10:59:27.994Z,100954.16
2019-05-06T11:01:36.203Z,100951.22
2019-05-06T11:03:42.469Z,100957.66
2019-05-06T11:05:49.816Z,100954.59
2019-05-06T11:07:56.130Z,100953.89
2019-05-06T11:10:02.871Z,100948.08
2019-05-06T11:12:09.571Z,100953.29
2019-05-06T11:14:15.913Z,100953.23
2019-05-06T11:16:23.723Z,100945.03
2019-05-06T11:18:33.153Z,100942.66
2019-05-06T11:20:38.694Z,100946.98
2019-05-06T11:22:45.494Z,100932.37
2019-05-06T11:24:51.844Z,100934.16
2019-05-06T11:26:58.196Z,100928.84
2019-05-06T11:29:17.787Z,100930.59
2019-05-06T11:31:25.876Z,100921.61
2019-05-06T11:33:42.331Z,100932.35
2019-05-06T11:35:55.092Z,100931.27
2019-05-06T11:38:12.397Z,100921.47
2019-05-06T11:40:19.690Z,100932.66
2019-05-06T11:42:32.146Z,100932.73
2019-05-06T11:44:34.365Z,100937.06
2019-05-06T11:46:45.072Z,100931.59
2019-05-06T11:48:55.998Z,100926.78
2019-05-06T11:51:03.895Z,100924.66
2019-05-06T11:53:12.461Z,100923.80
2019-05-06T11:55:28.867Z,100922.86
2019-05-06T11:57:27.072Z,100920.25
2019-05-06T11:59:33.438Z,100923.30
2019-05-06T12:01:53.174Z,100922.72
2019-05-06T12:03:58.356Z,100925.58
2019-05-06T12:06:06.250Z,100926.13
2019-05-06T12:08:15.662Z,100926.47
2019-05-06T12:10:22.503Z,100918.53
2019-05-06T12:12:30.048Z,100911.57
2019-05-06T12:14:37.586Z,100912.89
2019-05-06T12:16:44.559Z,100914.77
2019-05-06T12:18:52.972Z,100912.77
2019-05-06T12:21:09.048Z,100908.75
2019-05-06T12:23:09.957Z,100909.39
2019-05-06T12:25:18.502Z,100910.28
2019-05-06T12:27:43.459Z,100903.80
2019-05-06T12:29:52.811Z,100902.56
2019-05-06T12:32:19.126Z,100905.88
2019-05-06T12:34:25.491Z,100899.66
2019-05-06T12:36:32.545Z,100904.28
2019-05-06T12:38:43.165Z,100901.14
2019-05-06T12:40:48.978Z,100900.83
2019-05-06T12:42:56.871Z,100898.03
2019-05-06T12:45:06.964Z,100892.56
2019-05-06T12:47:15.387Z,100892.30
2019-05-06T12:49:21.798Z,100894.11
2019-05-06T12:51:32.103Z,100889.86
2019-05-06T12:53:39.356Z,100894.61
2019-05-06T12:55:46.321Z,100884.64
2019-05-06T12:57:53.190Z,100892.92
2019-05-06T12:59:59.778Z,100885.34
2019-05-06T13:02:06.632Z,100888.96
2019-05-06T13:04:13.785Z,100891.00
2019-05-06T13:06:26.373Z,100893.73
2019-05-06T13:08:51.696Z,100887.84
2019-05-06T13:10:38.617Z,100891.02
2019-05-06T13:12:46.648Z,100878.38
2019-05-06T13:14:53.106Z,100874.71
2019-05-06T13:17:02.400Z,100876.95
2019-05-06T13:19:09.005Z,100882.13
2019-05-06T13:21:17.527Z,100881.48
2019-05-06T13:23:37.194Z,100883.02
2019-05-06T13:25:45.494Z,100885.32
2019-05-06T13:27:52.880Z,100894.61
2019-05-06T13:29:59.269Z,100890.91
2019-05-06T13:32:07.152Z,100886.34
2019-05-06T13:34:15.448Z,100882.89
2019-05-06T13:36:22.814Z,100879.72
2019-05-06T13:38:32.267Z,100878.70
2019-05-06T13:40:53.250Z,100878.30
2019-05-06T13:43:05.179Z,100879.72
2019-05-06T13:45:13.567Z,100877.33
2019-05-06T13:47:22.908Z,100876.55
2019-05-06T13:49:42.860Z,100877.09
2019-05-06T13:52:06.794Z,100876.23
2019-05-06T13:54:15.986Z,100873.95
2019-05-06T13:56:22.919Z,100870.61
2019-05-06T13:58:32.832Z,100865.94
2019-05-06T14:00:39.938Z,100865.12
2019-05-06T14:02:58.475Z,100856.84
2019-05-06T14:05:07.347Z,100861.05
2019-05-06T14:07:15.093Z,100864.37
2019-05-06T14:09:32.001Z,100860.70
2019-05-06T14:11:32.486Z,100857.34
2019-05-06T14:13:39.179Z,100855.20
2019-05-06T14:15:45.611Z,100863.30
2019-05-06T14:17:53.235Z,100855.45
2019-05-06T14:20:02.543Z,100847.02
2019-05-06T14:22:08.712Z,100865.52
2019-05-06T14:24:17.467Z,100857.54
2019-05-06T14:26:28.351Z,100862.61
2019-05-06T14:28:46.029Z,100853.11
2019-05-06T14:30:54.159Z,100852.66
2019-05-06T14:33:03.272Z,100860.62
2019-05-06T14:35:12.075Z,100862.12
2019-05-06T14:37:18.970Z,100861.72
2019-05-06T14:39:47.525Z,100868.08
2019-05-06T14:41:39.805Z,100867.66
2019-05-06T14:43:46.648Z,100864.37
2019-05-06T14:45:54.354Z,100860.30
2019-05-06T14:48:00.820Z,100861.44
2019-05-06T14:50:14.399Z,100865.84
2019-05-06T14:52:19.389Z,100865.34
2019-05-06T14:54:26.356Z,100864.91
2019-05-06T14:56:37.120Z,100860.09
2019-05-06T14:58:45.196Z,100866.01
2019-05-06T15:00:53.361Z,100858.40
2019-05-06T15:03:02.047Z,100860.92
2019-05-06T15:05:09.295Z,100863.97
2019-05-06T15:07:16.114Z,100858.58
2019-05-06T15:09:22.877Z,100862.39
2019-05-06T15:11:29.337Z,100863.72
2019-05-06T15:13:37.237Z,100866.36
2019-05-06T15:15:44.336Z,100860.64
2019-05-06T15:17:53.106Z,100858.03
2019-05-06T15:20:02.865Z,100858.00
2019-05-06T15:22:09.344Z,100862.16
2019-05-06T15:24:21.020Z,100861.98
2019-05-06T15:26:27.094Z,100862.70
2019-05-06T15:28:35.058Z,100857.41
2019-05-06T15:30:45.864Z,100855.19
2019-05-06T15:32:53.012Z,100857.78
2019-05-06T15:35:13.406Z,100859.09
2019-05-06T15:37:27.689Z,100853.58
2019-05-06T15:39:35.518Z,100853.85
2019-05-06T15:41:43.682Z,100848.82
2019-05-06T15:43:50.311Z,100857.70
2019-05-06T15:45:57.363Z,100853.23
2019-05-06T15:48:04.084Z,100850.56
2019-05-06T15:50:12.801Z,100857.90
2019-05-06T15:52:19.548Z,100851.79
2019-05-06T15:54:26.255Z,100849.83
2019-05-06T15:56:33.312Z,100854.66
2019-05-06T15:58:42.322Z,100856.30
2019-05-06T16:00:48.923Z,100855.66
2019-05-06T16:02:55.739Z,100850.84
2019-05-06T16:05:11.519Z,100854.39
2019-05-06T16:07:12.653Z,100853.53
2019-05-06T16:09:19.074Z,100856.66
2019-05-06T16:11:25.446Z,100850.66
2019-05-06T16:13:32.115Z,100855.98
2019-05-06T16:15:42.225Z,100854.02
2019-05-06T16:17:47.927Z,100854.80
2019-05-06T16:19:55.367Z,100857.70
2019-05-06T16:22:03.938Z,100861.70
2019-05-06T16:24:12.774Z,100860.19
2019-05-06T16:26:19.534Z,100860.78
2019-05-06T16:28:26.084Z,100860.86
2019-05-06T16:30:33.918Z,100861.77
2019-05-06T16:32:41.929Z,100859.09
2019-05-06T16:34:48.431Z,100863.05
2019-05-06T16:36:56.035Z,100855.13
2019-05-06T16:39:03.567Z,100862.95
2019-05-06T16:41:13.869Z,100861.59
2019-05-06T16:43:22.154Z,100866.05
2019-05-06T16:45:28.748Z,100870.68
2019-05-06T16:47:38.788Z,100866.19
2019-05-06T16:49:45.315Z,100869.55
2019-05-06T16:51:52.562Z,100866.44
2019-05-06T16:53:58.926Z,100870.07
2019-05-06T16:56:07.286Z,100873.30
2019-05-06T16:58:15.494Z,100871.64
2019-05-06T17:00:24.135Z,100869.80
2019-05-06T17:02:32.777Z,100871.84
2019-05-06T17:04:46.805Z,100875.39
2019-05-06T17:06:53.947Z,100877.96
2019-05-06T17:09:16.833Z,100876.03
2019-05-06T17:11:26.247Z,100877.16
2019-05-06T17:13:22.829Z,100876.22
2019-05-06T17:15:31.974Z,100880.75
2019-05-06T17:17:43.702Z,100883.51
2019-05-06T17:19:48.534Z,100877.91
2019-05-06T17:21:55.167Z,100879.80
2019-05-06T17:24:03.522Z,100874.52
2019-05-06T17:26:09.982Z,100880.04
2019-05-06T17:28:18.234Z,100887.66
2019-05-06T17:30:29.545Z,100887.25
2019-05-06T17:32:37.754Z,100881.07
2019-05-06T17:34:47.141Z,100889.19
2019-05-06T17:36:55.511Z,100885.06
2019-05-06T17:39:02.976Z,100888.56
2019-05-06T17:41:12.073Z,100892.45
2019-05-06T17:43:18.134Z,100894.45
2019-05-06T17:45:57.989Z,100891.95
2019-05-06T17:47:57.127Z,100896.64
2019-05-06T17:50:03.746Z,100896.92
2019-05-06T17:52:12.005Z,100899.68
2019-05-06T17:54:18.885Z,100896.30
2019-05-06T17:56:26.518Z,100900.08
2019-05-06T17:58:33.962Z,100903.52
2019-05-06T18:00:42.843Z,100909.92
2019-05-06T18:02:49.374Z,100904.63
2019-05-06T18:04:57.315Z,100914.78
2019-05-06T18:07:04.941Z,100916.17
2019-05-06T18:09:12.701Z,100917.38
2019-05-06T18:11:22.361Z,100919.98
2019-05-06T18:13:29.195Z,100917.30
2019-05-06T18:15:35.794Z,100923.30
2019-05-06T18:17:42.701Z,100921.98
2019-05-06T18:19:49.894Z,100931.05
2019-05-06T18:21:56.794Z,100933.04
2019-05-06T18:24:05.356Z,100935.11
2019-05-06T18:26:12.117Z,100935.34
2019-05-06T18:28:19.543Z,100939.25
2019-05-06T18:30:33.483Z,100933.93
2019-05-06T18:32:36.243Z,100935.63
2019-05-06T18:34:44.531Z,100944.97
2019-05-06T18:36:53.002Z,100944.44
2019-05-06T18:39:00.251Z,100941.43
2019-05-06T18:41:09.055Z,100944.17
2019-05-06T18:43:15.834Z,100946.05
2019-05-06T18:45:23.021Z,100953.33
2019-05-06T18:47:33.023Z,100957.12
2019-05-06T18:49:39.594Z,100954.27
2019-05-06T18:51:46.571Z,100956.83
2019-05-06T18:53:55.282Z,100968.30
2019-05-06T18:56:03.053Z,100969.83
2019-05-06T18:58:12.700Z,100970.69
2019-05-06T19:00:22.267Z,100976.22
2019-05-06T19:02:28.956Z,100981.34
2019-05-06T19:04:37.494Z,100979.89
2019-05-06T19:06:44.688Z,100982.31
2019-05-06T19:09:02.740Z,100985.17
2019-05-06T19:11:12.967Z,100986.61
2019-05-06T19:13:22.251Z,100991.87
2019-05-06T19:15:29.848Z,100986.33
2019-05-06T19:17:36.986Z,100994.41
2019-05-06T19:19:46.647Z,100991.48
2019-05-06T19:21:53.448Z,100989.95
2019-05-06T19:24:00.007Z,100991.49
2019-05-06T19:26:06.668Z,101001.66
2019-05-06T19:28:14.307Z,100991.86
2019-05-06T19:30:23.247Z,100995.56
2019-05-06T19:32:34.941Z,100999.55
2019-05-06T19:34:39.343Z,100993.08
2019-05-06T19:36:48.288Z,101001.80
2019-05-06T19:38:56.767Z,101001.55
2019-05-06T19:41:05.838Z,101005.50
2019-05-06T19:43:12.363Z,101004.30
2019-05-06T19:45:19.847Z,101008.31
2019-05-06T19:47:34.177Z,101006.72
2019-05-06T19:49:42.395Z,101013.80
2019-05-06T19:51:52.811Z,101015.17
2019-05-06T19:54:02.085Z,101010.51
2019-05-06T19:56:12.376Z,101015.78
2019-05-06T19:58:20.135Z,101017.58
2019-05-06T20:00:28.767Z,101021.99
2019-05-06T20:02:35.566Z,101015.94
2019-05-06T20:04:44.532Z,101020.78
2019-05-06T20:06:52.289Z,101023.40
2019-05-06T20:09:08.262Z,101027.72
2019-05-06T20:11:26.414Z,101028.97
2019-05-06T20:13:33.207Z,101025.42
2019-05-06T20:15:42.682Z,101026.20
2019-05-06T20:17:49.574Z,101033.50
2019-05-06T20:19:56.577Z,101026.95
2019-05-06T20:22:04.096Z,101030.39
2019-05-06T20:24:12.793Z,101025.14
2019-05-06T20:26:21.443Z,101033.77
2019-05-06T20:28:28.928Z,101035.02
2019-05-06T20:30:35.609Z,101031.91
2019-05-06T20:32:44.015Z,101027.92
2019-05-06T20:34:50.940Z,101025.28
2019-05-06T20:36:57.868Z,101030.91
2019-05-06T20:39:06.579Z,101029.59
2019-05-06T20:41:13.768Z,101025.23
2019-05-06T20:43:23.910Z,101031.78
2019-05-06T20:45:32.420Z,101029.48
2019-05-06T20:47:39.671Z,101027.73
2019-05-06T20:49:46.005Z,101024.67
2019-05-06T20:51:53.622Z,101021.59
2019-05-06T20:54:02.014Z,101024.66
2019-05-06T20:56:12.193Z,101024.67
2019-05-06T20:58:16.706Z,101019.87
2019-05-06T21:00:24.017Z,101017.70
2019-05-06T21:02:32.526Z,101021.69
2019-05-06T21:04:39.238Z,101022.12
2019-05-06T21:06:49.004Z,101019.52
2019-05-06T21:08:55.553Z,101018.64
2019-05-06T21:11:03.933Z,101020.00
2019-05-06T21:13:09.707Z,101019.63
2019-05-06T21:15:17.135Z,101016.64
2019-05-06T21:17:23.574Z,101015.83
2019-05-06T21:19:29.941Z,101020.69
2019-05-06T21:21:36.206Z,101020.73
2019-05-06T21:23:43.987Z,101029.88
2019-05-06T21:25:52.348Z,101026.83
2019-05-06T21:27:58.457Z,101022.47
2019-05-06T21:30:08.209Z,101025.09
2019-05-06T21:32:14.589Z,101027.65
2019-05-06T21:34:22.318Z,101033.31
2019-05-06T21:36:30.361Z,101035.48
2019-05-06T21:38:36.806Z,101033.77
2019-05-06T21:40:43.538Z,101028.53
2019-05-06T21:42:51.817Z,101027.21
2019-05-06T21:44:58.281Z,101028.48
2019-05-06T21:47:04.864Z,101028.03
2019-05-06T21:49:12.143Z,101030.66
2019-05-06T21:51:18.583Z,101031.56
2019-05-06T21:53:24.842Z,101036.80
2019-05-06T21:55:32.331Z,101038.55
2019-05-06T21:57:38.910Z,101032.00
2019-05-06T21:59:45.468Z,101027.70
2019-05-06T22:01:52.126Z,101037.30
2019-05-06T22:03:59.116Z,101032.12
2019-05-06T22:06:06.059Z,101030.86
2019-05-06T22:08:13.598Z,101034.36
2019-05-06T22:10:20.466Z,101027.92
2019-05-06T22:12:26.806Z,101026.30
2019-05-06T22:14:33.182Z,101021.27
2019-05-06T22:16:39.550Z,101022.79
2019-05-06T22:18:46.900Z,101015.58
2019-05-06T22:21:11.003Z,101014.47
2019-05-06T22:23:17.250Z,101014.66
2019-05-06T22:25:23.732Z,101010.92
2019-05-06T22:27:30.297Z,101010.23
2019-05-06T22:29:36.663Z,101009.96
2019-05-06T22:31:43.246Z,101013.16
2019-05-06T22:33:51.076Z,101008.50
2019-05-06T22:35:57.595Z,101009.48
2019-05-06T22:38:04.040Z,101007.41
2019-05-06T22:40:12.525Z,101004.88
2019-05-06T22:42:19.050Z,101003.17
2019-05-06T22:44:25.487Z,100997.16
2019-05-06T22:46:32.929Z,101000.27
2019-05-06T22:48:39.650Z,101000.36
2019-05-06T22:50:46.028Z,100994.73
2019-05-06T22:52:52.908Z,101000.42
2019-05-06T22:54:59.252Z,100997.88
2019-05-06T22:57:05.734Z,100996.59
2019-05-06T22:59:12.655Z,100993.59
2019-05-06T23:01:36.986Z,100994.48
2019-05-06T23:03:44.977Z,100991.47
2019-05-06T23:05:51.554Z,100991.09
2019-05-06T23:07:57.905Z,100990.25
2019-05-06T23:10:09.298Z,100988.10
2019-05-06T23:12:15.657Z,100993.77
2019-05-06T23:14:31.287Z,100988.61
2019-05-06T23:16:37.311Z,100985.19
2019-05-06T23:18:43.684Z,100992.56
2019-05-06T23:20:52.587Z,100992.59
2019-05-06T23:22:59.950Z,100992.61
2019-05-06T23:25:07.943Z,101000.02
2019-05-06T23:27:15.885Z,100992.64
2019-05-06T23:29:22.489Z,100997.44
2019-05-06T23:31:29.282Z,100998.32
2019-05-06T23:33:35.798Z,100999.64
2019-05-06T23:35:43.920Z,100990.58
2019-05-06T23:38:45.334Z,100994.46
2019-05-06T23:41:45.978Z,100996.63
2019-05-06T23:44:47.020Z,100994.95
2019-05-06T23:47:48.091Z,100995.45
2019-05-06T23:50:49.704Z,100999.83
2019-05-06T23:53:52.314Z,100995.93
2019-05-06T23:56:46.183Z,100998.55
2019-05-06T23:58:52.555Z,101000.30
